»·PEaware :: N132EF KWHP-KCRQ

N132EF :: KWHP-KCRQ

FLIGHT INFORMATION

Flight Status: Arrived
Operator: Privately registered:
United States
More flights under this callsign
Pilot: Ron R. (25532)
Aircraft: BEECH AIRCRAFT DUKE
(BE60)
More flights by this aircraft type
Origin: KWHP Whiteman
United States
Destination: KCRQ McClellan-Palomar
United States
More flights between these airports :: More routes between these airports
Route: VNY V186 ROBNN V458 OCN
File this flight plan on PilotEdge
Remarks:
Altitude:
(Current/Filed)
7,000ft
Speed:
(Current/Filed)
210kts
Departed: 10-Sep-19 09:11 PM
Arrived: 10-Sep-19 09:53 PM
Distance/Time
Traveled:
89nm/0:42
Distance/Time
To Go:
Arrived

Flight Plot

Page will automatically refresh every two minutes.


Map Options




Map Legend


Flown Route
Filed Route
Departure Airport
Arrival Airport
Navaid (VOR, NDB)
Fix

Horizontal Profiles

Position Reports

Time Latitude Longitude Heading Altitude Ground
Speed
10-Sep-19 20:56 34.260733 -118.412078 230 1006ft 0kts
10-Sep-19 20:57 34.260733 -118.412078 230 1006ft 0kts
10-Sep-19 20:58 34.260733 -118.412078 230 1006ft 0kts
10-Sep-19 20:59 34.260732 -118.412080 230 1006ft 0kts
10-Sep-19 21:00 34.260731 -118.412082 230 1006ft 0kts
10-Sep-19 21:01 34.260729 -118.412084 230 1006ft 0kts
10-Sep-19 21:02 34.260728 -118.412086 230 1006ft 0kts
10-Sep-19 21:03 34.260726 -118.412088 230 1006ft 0kts
10-Sep-19 21:04 34.260725 -118.412090 230 1006ft 0kts
10-Sep-19 21:05 34.260723 -118.412093 230 1006ft 0kts
10-Sep-19 21:06 34.259687 -118.412068 159 1006ft 15kts
10-Sep-19 21:07 34.256656 -118.409785 138 1006ft 12kts
10-Sep-19 21:08 34.255369 -118.408805 232 1006ft 0kts
10-Sep-19 21:09 34.255367 -118.408808 232 1006ft 0kts
10-Sep-19 21:10 34.263660 -118.418051 319 1065ft 128kts
10-Sep-19 21:11 34.284664 -118.456952 274 2483ft 148kts
10-Sep-19 21:12 34.286517 -118.503875 272 3949ft 132kts
10-Sep-19 21:13 34.309504 -118.533327 312 4982ft 153kts
10-Sep-19 21:14 34.286273 -118.565703 162 4997ft 192kts
10-Sep-19 21:15 34.246005 -118.519406 132 4984ft 205kts
10-Sep-19 21:16 34.211811 -118.463917 109 4989ft 210kts
10-Sep-19 21:17 34.193682 -118.396279 110 4987ft 212kts
10-Sep-19 21:18 34.172841 -118.329568 111 4981ft 212kts
10-Sep-19 21:19 34.151864 -118.262881 111 4978ft 212kts
10-Sep-19 21:20 34.131447 -118.198032 111 5497ft 194kts
10-Sep-19 21:21 34.111899 -118.136134 111 6512ft 208kts
10-Sep-19 21:22 34.090053 -118.067020 111 6963ft 233kts
10-Sep-19 21:23 34.066848 -117.993656 111 6958ft 227kts
10-Sep-19 21:24 34.044747 -117.923956 111 6969ft 220kts
10-Sep-19 21:25 34.022839 -117.855242 111 6983ft 219kts
10-Sep-19 21:26 34.000965 -117.786411 111 6992ft 219kts
10-Sep-19 21:27 33.979032 -117.717832 111 6998ft 219kts
10-Sep-19 21:28 33.957025 -117.649214 111 6997ft 219kts
10-Sep-19 21:29 33.934963 -117.580577 111 6989ft 220kts
10-Sep-19 21:30 33.906086 -117.517437 147 6991ft 216kts
10-Sep-19 21:31 33.855886 -117.477160 146 6983ft 217kts
10-Sep-19 21:32 33.806076 -117.435410 146 6991ft 217kts
10-Sep-19 21:33 33.756465 -117.393879 146 6998ft 217kts
10-Sep-19 21:34 33.706735 -117.352336 146 7001ft 218kts
10-Sep-19 21:35 33.656942 -117.310796 147 7002ft 218kts
10-Sep-19 21:36 33.607006 -117.269358 147 7003ft 218kts
10-Sep-19 21:37 33.556918 -117.227735 147 7008ft 218kts
10-Sep-19 21:38 33.506880 -117.186163 147 6995ft 219kts
10-Sep-19 21:39 33.453143 -117.155839 173 6999ft 215kts
10-Sep-19 21:40 33.396244 -117.136386 153 6249ft 212kts
10-Sep-19 21:41 33.345632 -117.102187 152 4750ft 206kts
10-Sep-19 21:42 33.295709 -117.068358 152 4008ft 203kts
10-Sep-19 21:43 33.247947 -117.035913 152 4004ft 194kts
10-Sep-19 21:44 33.203632 -117.005719 152 3687ft 169kts
10-Sep-19 21:45 33.169429 -117.014855 254 3651ft 151kts
10-Sep-19 21:46 33.163365 -117.061632 259 3607ft 137kts
10-Sep-19 21:47 33.156211 -117.106296 259 3351ft 136kts
10-Sep-19 21:48 33.149493 -117.148193 259 2514ft 114kts
10-Sep-19 21:49 33.143821 -117.183530 259 1892ft 104kts
10-Sep-19 21:50 33.138078 -117.219179 259 1315ft 110kts
10-Sep-19 21:51 33.132306 -117.254958 259 687ft 108kts
10-Sep-19 21:52 33.127463 -117.285033 259 334ft 36kts
10-Sep-19 21:53 33.126423 -117.287467 170 334ft 0kts
10-Sep-19 21:54 33.126124 -117.286912 80 334ft 9kts
10-Sep-19 21:55 33.126727 -117.283131 79 334ft 13kts
10-Sep-19 21:56 33.127455 -117.278554 79 334ft 14kts
10-Sep-19 21:57 33.126884 -117.274735 130 334ft 12kts
10-Sep-19 21:58 33.126958 -117.275063 349 334ft 0kts
10-Sep-19 21:59 33.126959 -117.275063 349 334ft 0kts

Navigation Log

Ident Type
Flight plan parsing failed, navigation log unavailable